createdAt,value
2018-09-15T00:02:10.182Z,22.20
2018-09-15T00:04:37.609Z,22.30
2018-09-15T00:07:05.126Z,22.60
2018-09-15T00:09:32.603Z,22.60
2018-09-15T00:12:00.038Z,22.90
2018-09-15T00:14:27.483Z,23.10
2018-09-15T00:16:54.903Z,23.30
2018-09-15T00:19:22.356Z,23.40
2018-09-15T00:21:49.799Z,23.50
2018-09-15T00:24:17.258Z,23.40
2018-09-15T00:26:44.745Z,23.00
2018-09-15T00:29:12.190Z,22.80
2018-09-15T00:31:39.627Z,22.40
2018-09-15T00:34:07.107Z,21.90
2018-09-15T00:36:34.587Z,22.40
2018-09-15T00:39:02.323Z,22.90
2018-09-15T00:41:29.690Z,23.10
2018-09-15T00:43:57.163Z,23.10
2018-09-15T00:46:24.617Z,22.90
2018-09-15T00:48:52.215Z,22.80
2018-09-15T00:51:19.701Z,22.90
2018-09-15T00:53:47.165Z,23.20
2018-09-15T00:56:14.603Z,23.10
2018-09-15T00:58:42.237Z,23.20
2018-09-15T01:01:09.772Z,23.30
2018-09-15T01:03:37.282Z,23.40
2018-09-15T01:06:04.873Z,23.00
2018-09-15T01:08:32.437Z,22.80
2018-09-15T01:10:59.905Z,22.70
2018-09-15T01:13:27.397Z,22.10
2018-09-15T01:15:54.920Z,21.20
2018-09-15T01:18:22.378Z,20.40
2018-09-15T01:20:49.802Z,20.70
2018-09-15T01:23:17.334Z,20.40
2018-09-15T01:25:44.972Z,20.20
2018-09-15T01:28:12.401Z,20.20
2018-09-15T01:30:39.841Z,20.60
2018-09-15T01:33:07.333Z,21.20
2018-09-15T01:35:34.821Z,21.30
2018-09-15T01:38:02.288Z,21.40
2018-09-15T01:40:29.933Z,20.90
2018-09-15T01:42:57.500Z,21.00
2018-09-15T01:45:24.968Z,21.30
2018-09-15T01:47:52.478Z,21.90
2018-09-15T01:50:19.893Z,22.40
2018-09-15T01:52:47.315Z,22.40
2018-09-15T01:55:14.727Z,22.70
2018-09-15T01:57:42.287Z,22.90
2018-09-15T02:00:09.861Z,23.00
2018-09-15T02:02:37.374Z,23.10
2018-09-15T02:05:05.228Z,23.10
2018-09-15T02:07:32.841Z,23.20
2018-09-15T02:10:00.342Z,23.20
2018-09-15T02:12:28.069Z,23.20
2018-09-15T02:14:55.490Z,23.30
2018-09-15T02:17:23.011Z,23.30
2018-09-15T02:19:50.441Z,23.30
2018-09-15T02:22:17.950Z,23.30
2018-09-15T02:24:45.414Z,23.30
2018-09-15T02:27:12.846Z,23.20
2018-09-15T02:29:40.282Z,23.20
2018-09-15T02:32:07.727Z,23.20
2018-09-15T02:34:35.302Z,22.90
2018-09-15T02:37:02.705Z,23.00
2018-09-15T02:39:30.246Z,23.00
2018-09-15T02:41:57.843Z,22.90
2018-09-15T02:44:25.318Z,22.80
2018-09-15T02:46:52.922Z,22.90
2018-09-15T02:49:20.440Z,23.00
2018-09-15T02:51:47.910Z,23.10
2018-09-15T02:54:15.408Z,23.00
2018-09-15T02:56:43.044Z,23.00
2018-09-15T02:59:10.457Z,23.00
2018-09-15T03:01:37.886Z,23.00
2018-09-15T03:04:05.390Z,22.90
2018-09-15T03:06:32.913Z,22.90
2018-09-15T03:09:00.398Z,23.00
2018-09-15T03:11:27.842Z,23.00
2018-09-15T03:13:55.261Z,23.00
2018-09-15T03:16:22.878Z,23.10
2018-09-15T03:18:50.377Z,23.10
2018-09-15T03:21:17.861Z,23.10
2018-09-15T03:23:45.350Z,23.10
2018-09-15T03:26:12.790Z,23.10
2018-09-15T03:28:40.494Z,23.10
2018-09-15T03:31:07.962Z,23.00
2018-09-15T03:33:35.410Z,23.00
2018-09-15T03:36:02.901Z,23.00
2018-09-15T03:38:30.355Z,22.80
2018-09-15T03:40:57.837Z,22.80
2018-09-15T03:43:25.322Z,22.90
2018-09-15T03:45:52.726Z,22.90
2018-09-15T03:48:20.149Z,23.00
2018-09-15T03:50:47.606Z,23.00
2018-09-15T03:53:15.146Z,23.00
2018-09-15T03:55:42.553Z,22.90
2018-09-15T03:58:09.974Z,22.90
2018-09-15T04:00:37.492Z,23.00
2018-09-15T04:03:04.922Z,23.00
2018-09-15T04:05:32.505Z,22.70
2018-09-15T04:07:59.921Z,22.60
2018-09-15T04:10:27.357Z,22.50
2018-09-15T04:12:54.787Z,22.50
2018-09-15T04:15:22.230Z,22.20
2018-09-15T04:17:49.753Z,22.20
2018-09-15T04:20:17.181Z,22.50
2018-09-15T04:22:44.626Z,22.60
2018-09-15T04:25:12.154Z,22.80
2018-09-15T04:27:40.046Z,22.90
2018-09-15T04:30:07.628Z,22.90
2018-09-15T04:32:35.154Z,22.60
2018-09-15T04:35:02.600Z,21.40
2018-09-15T04:37:30.036Z,21.30
2018-09-15T04:39:57.589Z,21.30
2018-09-15T04:42:25.049Z,20.50
2018-09-15T04:44:52.556Z,20.70
2018-09-15T04:47:20.003Z,21.10
2018-09-15T04:49:47.510Z,21.40
2018-09-15T04:52:14.942Z,21.40
2018-09-15T04:54:42.368Z,21.30
2018-09-15T04:57:09.910Z,21.80
2018-09-15T04:59:37.370Z,22.10
2018-09-15T05:02:04.934Z,21.40
2018-09-15T05:04:32.455Z,21.50
2018-09-15T05:06:59.877Z,20.80
2018-09-15T05:09:27.289Z,21.00
2018-09-15T05:11:54.813Z,21.60
2018-09-15T05:14:22.328Z,22.10
2018-09-15T05:16:49.831Z,22.30
2018-09-15T05:19:17.234Z,22.10
2018-09-15T05:21:44.723Z,22.10
2018-09-15T05:24:12.158Z,22.30
2018-09-15T05:26:39.625Z,22.30
2018-09-15T05:29:07.044Z,22.50
2018-09-15T05:31:34.530Z,22.60
2018-09-15T05:34:01.995Z,22.70
2018-09-15T05:36:29.418Z,22.70
2018-09-15T05:38:56.874Z,22.70
2018-09-15T05:41:24.294Z,22.70
2018-09-15T05:43:51.778Z,22.80
2018-09-15T05:46:19.266Z,22.80
2018-09-15T05:48:46.768Z,22.80
2018-09-15T05:51:14.227Z,22.80
2018-09-15T05:53:41.657Z,22.90
2018-09-15T05:56:09.357Z,22.90
2018-09-15T05:58:36.720Z,22.90
2018-09-15T06:01:04.373Z,22.90
2018-09-15T06:03:31.998Z,22.90
2018-09-15T06:05:59.464Z,22.90
2018-09-15T06:08:26.961Z,22.90
2018-09-15T06:10:54.512Z,22.80
2018-09-15T06:13:22.040Z,22.80
2018-09-15T06:15:49.653Z,22.80
2018-09-15T06:18:17.057Z,22.80
2018-09-15T06:20:44.642Z,22.80
2018-09-15T06:23:12.529Z,22.80
2018-09-15T06:25:40.041Z,22.80
2018-09-15T06:28:07.634Z,22.80
2018-09-15T06:30:35.394Z,22.90
2018-09-15T06:33:03.062Z,22.90
2018-09-15T06:35:30.710Z,22.90
2018-09-15T06:37:58.225Z,23.00
2018-09-15T06:40:25.683Z,23.30
2018-09-15T06:42:53.155Z,23.40
2018-09-15T06:45:20.674Z,23.50
2018-09-15T06:47:48.207Z,23.60
2018-09-15T06:50:15.768Z,23.70
2018-09-15T06:52:43.219Z,23.70
2018-09-15T06:55:10.693Z,23.90
2018-09-15T06:57:38.115Z,23.80
2018-09-15T07:00:05.850Z,23.90
2018-09-15T07:02:33.441Z,23.90
2018-09-15T07:05:01.034Z,23.90
2018-09-15T07:07:28.579Z,24.00
2018-09-15T07:09:56.099Z,24.10
2018-09-15T07:12:23.659Z,24.20
2018-09-15T07:14:51.105Z,24.20
2018-09-15T07:17:18.646Z,24.30
2018-09-15T07:19:46.129Z,24.50
2018-09-15T07:22:13.578Z,24.60
2018-09-15T07:24:41.113Z,24.60
2018-09-15T07:27:08.598Z,24.80
2018-09-15T07:29:36.136Z,24.80
2018-09-15T07:32:03.637Z,25.00
2018-09-15T07:34:31.131Z,25.10
2018-09-15T07:36:58.643Z,25.10
2018-09-15T07:39:26.230Z,25.20
2018-09-15T07:41:53.709Z,25.20
2018-09-15T07:44:21.245Z,25.30
2018-09-15T07:46:48.677Z,25.40
2018-09-15T07:49:16.142Z,25.50
2018-09-15T07:51:43.669Z,25.20
2018-09-15T07:54:11.109Z,25.00
2018-09-15T07:56:38.585Z,25.50
2018-09-15T07:59:06.005Z,25.70
2018-09-15T08:01:33.471Z,26.00
2018-09-15T08:04:01.058Z,26.20
2018-09-15T08:06:28.539Z,26.30
2018-09-15T08:08:55.947Z,26.40
2018-09-15T08:11:23.419Z,26.40
2018-09-15T08:13:50.876Z,26.40
2018-09-15T08:16:18.469Z,26.60
2018-09-15T08:18:46.003Z,26.60
2018-09-15T08:21:13.554Z,25.80
2018-09-15T08:23:41.145Z,26.20
2018-09-15T08:26:08.594Z,26.80
2018-09-15T08:28:36.037Z,27.20
2018-09-15T08:31:03.469Z,27.70
2018-09-15T08:33:30.922Z,28.10
2018-09-15T08:35:58.377Z,28.10
2018-09-15T08:38:25.885Z,28.10
2018-09-15T08:40:53.263Z,28.00
2018-09-15T08:43:20.817Z,28.00
2018-09-15T08:45:50.221Z,27.70
2018-09-15T08:48:17.697Z,28.10
2018-09-15T08:50:45.186Z,29.10
2018-09-15T08:53:12.828Z,29.40
2018-09-15T08:55:40.260Z,29.10
2018-09-15T08:58:07.821Z,28.50
2018-09-15T09:00:35.532Z,28.40
2018-09-15T09:03:03.157Z,28.40
2018-09-15T09:05:30.725Z,29.70
2018-09-15T09:07:58.267Z,30.30
2018-09-15T09:10:25.747Z,30.80
2018-09-15T09:12:53.201Z,29.80
2018-09-15T09:15:20.961Z,29.50
2018-09-15T09:17:48.818Z,29.40
2018-09-15T09:20:16.394Z,28.50
2018-09-15T09:22:43.870Z,27.60
2018-09-15T09:25:11.338Z,27.20
2018-09-15T09:27:38.938Z,26.50
2018-09-15T09:30:06.630Z,26.00
2018-09-15T09:32:34.271Z,26.90
2018-09-15T09:35:01.756Z,28.30
2018-09-15T09:37:29.449Z,27.30
2018-09-15T09:39:56.877Z,27.30
2018-09-15T09:42:24.591Z,26.90
2018-09-15T09:44:52.005Z,26.50
2018-09-15T09:47:19.517Z,26.30
2018-09-15T09:49:47.126Z,26.60
2018-09-15T09:52:14.706Z,26.60
2018-09-15T09:54:42.134Z,28.30
2018-09-15T09:57:09.590Z,29.70
2018-09-15T09:59:37.105Z,30.60
2018-09-15T10:02:10.409Z,31.20
2018-09-15T10:04:37.846Z,29.20
2018-09-15T10:07:05.440Z,27.30
2018-09-15T10:09:32.890Z,26.40
2018-09-15T10:12:00.535Z,25.90
2018-09-15T10:14:27.941Z,25.40
2018-09-15T10:16:55.553Z,25.20
2018-09-15T10:19:23.085Z,25.30
2018-09-15T10:21:50.659Z,26.20
2018-09-15T10:24:18.154Z,28.40
2018-09-15T10:26:45.668Z,30.40
2018-09-15T10:29:13.217Z,31.30
2018-09-15T10:31:40.681Z,30.70
2018-09-15T10:34:08.121Z,29.20
2018-09-15T10:36:35.558Z,27.60
2018-09-15T10:39:04.547Z,26.70
2018-09-15T10:41:32.165Z,26.80
2018-09-15T10:43:59.664Z,29.40
2018-09-15T10:46:27.134Z,31.80
2018-09-15T10:48:54.665Z,33.50
2018-09-15T10:51:22.129Z,35.10
2018-09-15T10:53:49.638Z,35.80
2018-09-15T10:56:17.150Z,34.70
2018-09-15T10:58:44.801Z,34.30
2018-09-15T11:01:12.240Z,33.90
2018-09-15T11:03:39.757Z,33.80
2018-09-15T11:06:07.240Z,33.80
2018-09-15T11:08:35.630Z,32.80
2018-09-15T11:11:03.159Z,31.10
2018-09-15T11:13:30.708Z,32.40
2018-09-15T11:15:58.286Z,33.40
2018-09-15T11:18:25.740Z,34.20
2018-09-15T11:20:53.256Z,34.40
2018-09-15T11:23:20.710Z,34.60
2018-09-15T11:25:48.229Z,35.60
2018-09-15T11:28:15.746Z,36.10
2018-09-15T11:30:43.305Z,36.20
2018-09-15T11:33:10.884Z,36.70
2018-09-15T11:35:38.406Z,36.30
2018-09-15T11:38:05.965Z,34.60
2018-09-15T11:40:33.542Z,31.80
2018-09-15T11:43:01.084Z,29.60
2018-09-15T11:45:28.639Z,28.30
2018-09-15T11:47:56.132Z,27.50
2018-09-15T11:50:23.598Z,27.00
2018-09-15T11:52:51.213Z,26.60
2018-09-15T11:55:18.778Z,26.80
2018-09-15T11:57:46.216Z,26.60
2018-09-15T12:00:16.710Z,26.50
2018-09-15T12:02:44.276Z,26.70
2018-09-15T12:05:12.720Z,26.50
2018-09-15T12:07:40.199Z,26.00
2018-09-15T12:10:07.708Z,25.90
2018-09-15T12:12:35.188Z,25.80
2018-09-15T12:15:02.759Z,25.90
2018-09-15T12:17:30.203Z,25.90
2018-09-15T12:19:57.626Z,25.90
2018-09-15T12:22:25.074Z,25.80
2018-09-15T12:24:52.718Z,25.90
2018-09-15T12:27:20.269Z,25.80
2018-09-15T12:29:47.723Z,25.70
2018-09-15T12:32:15.286Z,25.70
2018-09-15T12:34:42.707Z,25.80
2018-09-15T12:37:10.166Z,25.80
2018-09-15T12:39:37.626Z,25.80
2018-09-15T12:42:05.107Z,25.60
2018-09-15T12:44:32.637Z,25.40
2018-09-15T12:47:00.260Z,25.40
2018-09-15T12:49:27.922Z,25.50
2018-09-15T12:51:55.561Z,25.50
2018-09-15T12:54:23.000Z,25.50
2018-09-15T12:56:50.497Z,25.40
2018-09-15T12:59:18.144Z,25.00
2018-09-15T13:01:45.630Z,24.90
2018-09-15T13:04:13.081Z,25.20
2018-09-15T13:06:40.554Z,25.50
2018-09-15T13:09:09.605Z,25.50
2018-09-15T13:11:37.146Z,25.30
2018-09-15T13:14:04.933Z,25.40
2018-09-15T13:16:32.388Z,25.40
2018-09-15T13:19:00.129Z,25.50
2018-09-15T13:21:27.605Z,25.80
2018-09-15T13:23:55.017Z,26.20
2018-09-15T13:26:22.601Z,26.80
2018-09-15T13:28:50.160Z,26.60
2018-09-15T13:31:17.749Z,27.80
2018-09-15T13:33:45.201Z,28.70
2018-09-15T13:36:12.733Z,30.10
2018-09-15T13:38:40.187Z,30.50
2018-09-15T13:41:07.606Z,30.40
2018-09-15T13:43:35.181Z,29.90
2018-09-15T13:46:02.725Z,31.40
2018-09-15T13:48:30.347Z,32.30
2018-09-15T13:50:57.779Z,32.60
2018-09-15T13:53:25.240Z,32.80
2018-09-15T13:55:52.785Z,32.00
2018-09-15T13:58:20.354Z,31.50
2018-09-15T14:00:47.786Z,30.10
2018-09-15T14:03:15.389Z,30.30
2018-09-15T14:05:43.114Z,30.90
2018-09-15T14:08:10.630Z,31.60
2018-09-15T14:10:38.107Z,32.20
2018-09-15T14:13:05.588Z,31.90
2018-09-15T14:15:33.146Z,31.90
2018-09-15T14:18:00.678Z,31.50
2018-09-15T14:20:28.239Z,30.70
2018-09-15T14:22:55.861Z,30.10
2018-09-15T14:25:23.373Z,30.40
2018-09-15T14:27:50.835Z,30.50
2018-09-15T14:30:18.342Z,30.80
2018-09-15T14:32:45.797Z,31.20
2018-09-15T14:35:13.289Z,31.10
2018-09-15T14:37:40.809Z,30.70
2018-09-15T14:40:08.246Z,30.60
2018-09-15T14:42:35.783Z,31.30
2018-09-15T14:45:03.445Z,31.40
2018-09-15T14:47:31.026Z,31.10
2018-09-15T14:49:58.527Z,30.50
2018-09-15T14:52:25.982Z,30.10
2018-09-15T14:54:53.522Z,29.90
2018-09-15T14:57:21.137Z,29.90
2018-09-15T14:59:48.635Z,29.50
2018-09-15T15:02:16.131Z,29.00
2018-09-15T15:04:43.578Z,28.40
2018-09-15T15:07:11.155Z,27.60
2018-09-15T15:09:38.639Z,27.20
2018-09-15T15:12:06.205Z,26.80
2018-09-15T15:14:33.668Z,26.50
2018-09-15T15:17:01.295Z,26.20
2018-09-15T15:19:28.792Z,25.90
2018-09-15T15:21:56.211Z,25.70
2018-09-15T15:24:23.790Z,25.60
2018-09-15T15:26:51.265Z,25.50
2018-09-15T15:29:18.708Z,25.50
2018-09-15T15:31:46.239Z,25.40
2018-09-15T15:34:13.730Z,25.30
2018-09-15T15:36:41.238Z,25.20
2018-09-15T15:39:08.836Z,25.10
2018-09-15T15:41:36.398Z,25.10
2018-09-15T15:44:04.194Z,25.10
2018-09-15T15:46:31.683Z,25.10
2018-09-15T15:48:59.217Z,25.10
2018-09-15T15:51:26.838Z,25.10
2018-09-15T15:53:54.291Z,25.10
2018-09-15T15:56:21.702Z,25.30
2018-09-15T15:58:49.334Z,25.50
2018-09-15T16:01:16.760Z,25.40
2018-09-15T16:03:44.251Z,25.20
2018-09-15T16:06:11.844Z,25.00
2018-09-15T16:08:39.365Z,25.00
2018-09-15T16:11:06.912Z,24.90
2018-09-15T16:13:34.413Z,24.90
2018-09-15T16:16:01.935Z,24.80
2018-09-15T16:18:29.434Z,24.80
2018-09-15T16:20:56.881Z,24.70
2018-09-15T16:23:24.300Z,24.70
2018-09-15T16:25:52.110Z,24.80
2018-09-15T16:28:19.605Z,24.90
2018-09-15T16:30:47.209Z,25.00
2018-09-15T16:33:14.674Z,25.10
2018-09-15T16:35:42.103Z,25.10
2018-09-15T16:38:09.623Z,25.10
2018-09-15T16:40:37.176Z,25.10
2018-09-15T16:43:05.062Z,25.00
2018-09-15T16:45:32.575Z,25.00
2018-09-15T16:48:00.174Z,24.90
2018-09-15T16:50:27.760Z,24.80
2018-09-15T16:52:55.203Z,24.70
2018-09-15T16:55:22.662Z,24.70
2018-09-15T16:57:50.108Z,24.70
2018-09-15T17:00:17.534Z,24.60
2018-09-15T17:02:44.957Z,24.70
2018-09-15T17:05:12.437Z,24.60
2018-09-15T17:07:39.895Z,24.60
2018-09-15T17:10:07.423Z,24.60
2018-09-15T17:12:34.993Z,24.60
2018-09-15T17:15:02.588Z,24.60
2018-09-15T17:17:30.117Z,24.60
2018-09-15T17:19:57.657Z,24.60
2018-09-15T17:22:25.258Z,24.60
2018-09-15T17:24:53.683Z,24.60
2018-09-15T17:27:21.256Z,24.60
2018-09-15T17:29:48.700Z,24.60
2018-09-15T17:32:16.115Z,24.60
2018-09-15T17:34:43.588Z,24.60
2018-09-15T17:37:11.295Z,24.60
2018-09-15T17:39:38.840Z,24.50
2018-09-15T17:42:06.603Z,24.50
2018-09-15T17:44:34.054Z,24.50
2018-09-15T17:47:01.572Z,24.50
2018-09-15T17:49:29.049Z,24.50
2018-09-15T17:51:56.549Z,24.50
2018-09-15T17:54:23.990Z,24.50
2018-09-15T17:56:51.458Z,24.50
2018-09-15T17:59:19.038Z,24.50
2018-09-15T18:01:46.489Z,24.50
2018-09-15T18:04:14.003Z,24.50
2018-09-15T18:06:41.481Z,24.50
2018-09-15T18:09:09.041Z,24.40
2018-09-15T18:11:36.542Z,24.50
2018-09-15T18:14:04.030Z,24.40
2018-09-15T18:16:31.497Z,24.40
2018-09-15T18:18:59.087Z,24.40
2018-09-15T18:21:26.600Z,24.40
2018-09-15T18:23:54.120Z,24.40
2018-09-15T18:26:21.674Z,24.40
2018-09-15T18:28:49.159Z,24.40
2018-09-15T18:31:16.653Z,24.40
2018-09-15T18:33:44.360Z,24.40
2018-09-15T18:36:11.829Z,24.40
2018-09-15T18:38:39.353Z,24.40
2018-09-15T18:41:06.838Z,24.40
2018-09-15T18:43:34.338Z,24.40
2018-09-15T18:46:01.903Z,24.30
2018-09-15T18:48:29.446Z,24.20
2018-09-15T18:50:56.928Z,24.10
2018-09-15T18:53:24.438Z,24.00
2018-09-15T18:55:52.037Z,24.00
2018-09-15T18:58:19.693Z,24.00
2018-09-15T19:00:47.243Z,24.00
2018-09-15T19:03:15.183Z,24.20
2018-09-15T19:05:43.846Z,24.20
2018-09-15T19:08:11.446Z,24.20
2018-09-15T19:10:38.914Z,24.10
2018-09-15T19:13:06.413Z,23.90
2018-09-15T19:15:33.901Z,23.40
2018-09-15T19:18:01.355Z,23.00
2018-09-15T19:20:28.914Z,22.10
2018-09-15T19:22:56.354Z,21.60
2018-09-15T19:25:24.035Z,21.70
2018-09-15T19:27:51.517Z,22.00
2018-09-15T19:30:19.038Z,22.70
2018-09-15T19:32:46.504Z,23.20
2018-09-15T19:35:13.937Z,23.50
2018-09-15T19:37:41.451Z,23.60
2018-09-15T19:40:08.921Z,23.70
2018-09-15T19:42:36.385Z,23.70
2018-09-15T19:45:04.014Z,23.50
2018-09-15T19:47:31.546Z,22.50
2018-09-15T19:49:59.169Z,21.70
2018-09-15T19:52:26.703Z,21.90
2018-09-15T19:54:54.143Z,22.50
2018-09-15T19:57:21.622Z,23.10
2018-09-15T19:59:49.225Z,23.30
2018-09-15T20:02:16.721Z,23.40
2018-09-15T20:04:44.182Z,23.50
2018-09-15T20:07:11.671Z,23.60
2018-09-15T20:09:39.127Z,23.70
2018-09-15T20:12:06.610Z,23.80
2018-09-15T20:14:34.077Z,23.90
2018-09-15T20:17:00.501Z,23.90
2018-09-15T20:19:26.870Z,23.60
2018-09-15T20:21:53.282Z,23.60
2018-09-15T20:24:20.748Z,23.70
2018-09-15T20:26:48.249Z,23.60
2018-09-15T20:29:15.705Z,23.50
2018-09-15T20:31:43.189Z,23.50
2018-09-15T20:34:10.645Z,23.60
2018-09-15T20:36:38.148Z,23.60
2018-09-15T20:39:08.570Z,23.30
2018-09-15T20:41:36.054Z,22.90
2018-09-15T20:44:03.573Z,22.90
2018-09-15T20:46:31.204Z,22.70
2018-09-15T20:49:00.397Z,22.80
2018-09-15T20:51:27.909Z,23.00
2018-09-15T20:53:55.527Z,23.00
2018-09-15T20:56:23.060Z,22.80
2018-09-15T20:58:50.586Z,22.40
2018-09-15T21:01:18.079Z,22.10
2018-09-15T21:03:45.522Z,21.60
2018-09-15T21:06:13.886Z,21.20
2018-09-15T21:08:41.370Z,21.00
2018-09-15T21:11:08.867Z,21.10
2018-09-15T21:13:36.592Z,21.60
2018-09-15T21:16:04.143Z,22.10
2018-09-15T21:18:31.582Z,22.20
2018-09-15T21:20:59.081Z,22.20
2018-09-15T21:23:26.505Z,22.20
2018-09-15T21:25:54.010Z,21.70
2018-09-15T21:28:21.447Z,21.60
2018-09-15T21:30:48.952Z,21.60
2018-09-15T21:33:16.460Z,21.90
2018-09-15T21:35:44.058Z,22.10
2018-09-15T21:38:11.511Z,21.80
2018-09-15T21:40:39.014Z,21.40
2018-09-15T21:43:06.539Z,20.90
2018-09-15T21:45:34.036Z,20.90
2018-09-15T21:48:01.519Z,21.10
2018-09-15T21:53:13.513Z,21.40
2018-09-15T21:55:41.018Z,21.30
2018-09-15T21:58:08.521Z,21.30
2018-09-15T22:00:36.047Z,21.40
2018-09-15T22:03:03.531Z,21.80
2018-09-15T22:05:47.321Z,21.90
2018-09-15T22:08:14.768Z,22.00
2018-09-15T22:10:42.244Z,22.00
2018-09-15T22:13:09.741Z,22.00
2018-09-15T22:15:37.371Z,21.90
2018-09-15T22:18:05.065Z,21.80
2018-09-15T22:20:32.618Z,22.00
2018-09-15T22:23:00.131Z,22.00
2018-09-15T22:25:27.606Z,21.90
2018-09-15T22:27:55.045Z,21.50
2018-09-15T22:30:22.541Z,21.10
2018-09-15T22:32:50.003Z,20.70
2018-09-15T22:35:17.465Z,20.20
2018-09-15T22:37:44.941Z,20.00
2018-09-15T22:40:12.435Z,20.00
2018-09-15T22:42:39.910Z,20.50
2018-09-15T22:45:07.443Z,21.30
2018-09-15T22:47:34.877Z,21.70
2018-09-15T22:50:02.682Z,21.50
2018-09-15T22:52:30.173Z,20.70
2018-09-15T22:54:57.677Z,20.50
2018-09-15T22:57:25.159Z,20.70
2018-09-15T22:59:52.589Z,20.90
2018-09-15T23:02:20.082Z,21.50
2018-09-15T23:04:47.639Z,21.80
2018-09-15T23:07:15.117Z,21.80
2018-09-15T23:09:42.713Z,21.20
2018-09-15T23:12:10.394Z,20.90
2018-09-15T23:14:37.917Z,20.70
2018-09-15T23:17:05.455Z,20.40
2018-09-15T23:19:32.890Z,19.80
2018-09-15T23:22:00.386Z,19.40
2018-09-15T23:24:27.806Z,19.10
2018-09-15T23:26:55.385Z,19.30
2018-09-15T23:29:22.857Z,19.80
2018-09-15T23:31:50.345Z,19.20
2018-09-15T23:34:17.870Z,18.60
2018-09-15T23:36:52.281Z,19.00
2018-09-15T23:39:19.722Z,19.40
2018-09-15T23:41:47.241Z,19.70
2018-09-15T23:44:14.725Z,19.80
2018-09-15T23:46:42.211Z,20.10
2018-09-15T23:49:09.657Z,20.40
2018-09-15T23:51:37.137Z,20.60
2018-09-15T23:54:04.705Z,20.60
2018-09-15T23:56:32.138Z,20.30
2018-09-15T23:58:59.667Z,20.00
